Welcome to Northern Hawkes Bay. New Zealand.
PWS Header
      nz Flag



Hit Counter


W3C Valid W3C Valid logo


    Wairoa

Select any of the Stations below to visit their websites.










Historic Data from Weather Underground
Select the location of interest below. Wairoa is the default. Please have patience, this Data is slow to load in.
Northern Hawkes Bay Historical Data
Daily Summary for November 24, 2017 Units:  Metric    English   Both
« Previous Day
Next Day »
Daily Weekly Monthly Yearly Custom
  High: Low: Average:
Temperature: 26.2 °C 9.8 °C 16.8 °C
Dew Point: 17.4 °C 7.1 °C 13.7 °C
Humidity: 99% 33% 84%
Wind Speed: 11.1km/h 0.0km/h 4.3km/h
Wind Gust: 20.9km/h - -
Wind- - WSW
Pressure: 1027.7 hPa 1022.9 hPa -
Precipitation: 0.0 mm    
Historical Graphs
 
 
Tabular Data for November 24, 2017
Time Temperature Dew Point Pressure Wind Wind Speed Wind Gust Humidity Rainfall Rate (Hourly) solar
00:07 11.9 °C 11.6 °C 1027.3 hPa Calm     98% 0.0 mm 0 W/m2
00:12 11.8 °C 11.5 °C 1027.3 hPa North 1.1 km/h 3.5 km/h 98% 0.0 mm 0 W/m2
00:17 11.8 °C 11.5 °C 1027.3 hPa Calm   3.5 km/h 98% 0.0 mm 0 W/m2
00:22 11.7 °C 11.4 °C 1027.3 hPa Calm   2.6 km/h 98% 0.0 mm 0 W/m2
00:27 11.7 °C 11.4 °C 1027.3 hPa Calm   3.5 km/h 98% 0.0 mm 0 W/m2
00:32 11.6 °C 11.3 °C 1027.3 hPa Calm   3.5 km/h 98% 0.0 mm 0 W/m2
00:42 11.5 °C 11.2 °C 1027.0 hPa Calm   1.1 km/h 98% 0.0 mm 0 W/m2
00:47 11.4 °C 11.1 °C 1027.3 hPa Calm     98% 0.0 mm 0 W/m2
00:57 11.4 °C 11.1 °C 1027.0 hPa North 1.1 km/h 3.5 km/h 98% 0.0 mm 0 W/m2
01:02 11.4 °C 11.1 °C 1027.0 hPa North 1.1 km/h 3.5 km/h 98% 0.0 mm 0 W/m2
01:07 11.4 °C 11.1 °C 1027.0 hPa North 1.1 km/h 3.5 km/h 98% 0.0 mm 0 W/m2
01:12 11.4 °C 11.1 °C 1027.0 hPa Calm   3.5 km/h 98% 0.0 mm 0 W/m2
01:17 11.3 °C 11.0 °C 1027.0 hPa North 1.1 km/h 3.5 km/h 98% 0.0 mm 0 W/m2
01:22 11.3 °C 11.0 °C 1027.0 hPa North 2.6 km/h 3.5 km/h 98% 0.0 mm 0 W/m2
01:27 11.3 °C 11.0 °C 1027.0 hPa North 1.1 km/h 3.5 km/h 98% 0.0 mm 0 W/m2
01:37 11.3 °C 11.0 °C 1027.0 hPa North 1.1 km/h 3.5 km/h 98% 0.0 mm 0 W/m2
01:52 11.1 °C 10.8 °C 1026.3 hPa Calm   5.0 km/h 98% 0.0 mm 0 W/m2
01:57 11.1 °C 10.8 °C 1026.6 hPa Calm   2.6 km/h 98% 0.0 mm 0 W/m2
02:02 11.1 °C 10.8 °C 1026.3 hPa NW 1.1 km/h 2.6 km/h 98% 0.0 mm 0 W/m2
02:07 10.9 °C 10.8 °C 1026.3 hPa NW 2.6 km/h 3.5 km/h 99% 0.0 mm 0 W/m2
02:12 10.9 °C 10.8 °C 1026.3 hPa NW 2.6 km/h 5.0 km/h 99% 0.0 mm 0 W/m2
02:17 10.9 °C 10.8 °C 1026.3 hPa NW 2.6 km/h 5.0 km/h 99% 0.0 mm 0 W/m2
02:22 10.9 °C 10.8 °C 1026.3 hPa Calm   5.0 km/h 99% 0.0 mm 0 W/m2
02:27 10.8 °C 10.7 °C 1026.3 hPa NNW 1.1 km/h 5.0 km/h 99% 0.0 mm 0 W/m2
02:32 10.8 °C 10.7 °C 1026.6 hPa NNW 2.6 km/h 6.1 km/h 99% 0.0 mm 0 W/m2
02:37 10.8 °C 10.7 °C 1026.3 hPa NW 3.5 km/h 6.1 km/h 99% 0.0 mm 0 W/m2
02:42 10.8 °C 10.7 °C 1026.3 hPa NW 2.6 km/h 6.1 km/h 99% 0.0 mm 0 W/m2
02:47 10.8 °C 10.7 °C 1026.3 hPa NNW 3.5 km/h 6.1 km/h 99% 0.0 mm 0 W/m2
02:57 10.7 °C 10.6 °C 1026.3 hPa NNW 2.6 km/h 6.1 km/h 99% 0.0 mm 0 W/m2
03:07 10.6 °C 10.4 °C 1026.0 hPa NNW 2.6 km/h 6.1 km/h 99% 0.0 mm 0 W/m2
03:17 10.5 °C 10.3 °C 1026.0 hPa North 2.6 km/h 5.0 km/h 99% 0.0 mm 0 W/m2
03:27 10.3 °C 10.2 °C 1026.3 hPa NNW 2.6 km/h 5.0 km/h 99% 0.0 mm 0 W/m2
03:32 10.3 °C 10.2 °C 1026.0 hPa NNW 2.6 km/h 6.1 km/h 99% 0.0 mm 0 W/m2
03:37 10.3 °C 10.2 °C 1026.3 hPa NNW 2.6 km/h 6.1 km/h 99% 0.0 mm 0 W/m2
03:42 10.3 °C 10.2 °C 1026.0 hPa NNW 2.6 km/h 7.2 km/h 99% 0.0 mm 0 W/m2
03:47 10.3 °C 10.2 °C 1026.0 hPa NNW 3.5 km/h 7.2 km/h 99% 0.0 mm 0 W/m2
03:52 10.3 °C 10.2 °C 1026.0 hPa NNW 3.5 km/h 7.2 km/h 99% 0.0 mm 0 W/m2
03:57 10.3 °C 10.2 °C 1026.3 hPa NNW 2.6 km/h 7.2 km/h 99% 0.0 mm 0 W/m2
04:02 10.2 °C 10.1 °C 1026.0 hPa NNW 2.6 km/h 6.1 km/h 99% 0.0 mm 0 W/m2
04:07 10.2 °C 10.1 °C 1026.0 hPa NNW 2.6 km/h 6.1 km/h 99% 0.0 mm 0 W/m2
04:12 10.2 °C 10.1 °C 1026.0 hPa NW 3.5 km/h 6.1 km/h 99% 0.0 mm 0 W/m2
04:18 10.2 °C 10.1 °C 1026.0 hPa NW 2.6 km/h 6.1 km/h 99% 0.0 mm 0 W/m2
04:23 10.1 °C 9.9 °C 1026.0 hPa NW 2.6 km/h 6.1 km/h 99% 0.0 mm 0 W/m2
04:28 10.1 °C 9.9 °C 1026.0 hPa NW 2.6 km/h 6.1 km/h 99% 0.0 mm 0 W/m2
04:33 10.1 °C 9.9 °C 1026.0 hPa NW 2.6 km/h 6.1 km/h 99% 0.0 mm 0 W/m2
04:38 10.1 °C 9.9 °C 1026.0 hPa NNW 3.5 km/h 7.2 km/h 99% 0.0 mm 0 W/m2
04:43 10.2 °C 10.1 °C 1026.0 hPa NNW 5.0 km/h 8.7 km/h 99% 0.0 mm 0 W/m2
04:53 10.2 °C 10.1 °C 1026.0 hPa NNW 5.0 km/h 8.7 km/h 99% 0.0 mm 0 W/m2
04:58 10.1 °C 9.9 °C 1026.0 hPa NNW 5.0 km/h 7.2 km/h 99% 0.0 mm 0 W/m2
05:03 10.1 °C 9.9 °C 1026.0 hPa NW 3.5 km/h 7.2 km/h 99% 0.0 mm 0 W/m2
05:13 10.0 °C 9.8 °C 1026.0 hPa NW 5.0 km/h 7.2 km/h 99% 0.0 mm 0 W/m2
05:18 9.9 °C 9.8 °C 1026.0 hPa NW 3.5 km/h 8.7 km/h 99% 0.0 mm 0 W/m2
05:23 9.9 °C 9.8 °C 1026.0 hPa NW 5.0 km/h 8.7 km/h 99% 0.0 mm 0 W/m2
05:28 9.9 °C 9.8 °C 1026.0 hPa NNW 5.0 km/h 8.7 km/h 99% 0.0 mm 0 W/m2
05:33 9.8 °C 9.7 °C 1026.0 hPa NNW 3.5 km/h 7.2 km/h 99% 0.0 mm 0 W/m2
05:43 9.9 °C 9.8 °C 1026.0 hPa NNW 3.5 km/h 7.2 km/h 99% 0.0 mm 1 W/m2
05:48 10.0 °C 9.8 °C 1026.0 hPa NNW 3.5 km/h 8.7 km/h 99% 0.0 mm 3 W/m2
05:53 10.0 °C 9.8 °C 1026.3 hPa NW 3.5 km/h 9.7 km/h 99% 0.0 mm 6 W/m2
05:58 10.0 °C 9.8 °C 1026.0 hPa NW 3.5 km/h 9.7 km/h 99% 0.0 mm 9 W/m2
06:08 9.9 °C 9.8 °C 1026.0 hPa NW 2.6 km/h 7.2 km/h 99% 0.0 mm 18 W/m2
06:13 10.0 °C 9.8 °C 1026.3 hPa NW 5.0 km/h 6.1 km/h 99% 0.0 mm 21 W/m2
06:18 10.2 °C 10.1 °C 1026.3 hPa NW 3.5 km/h 8.7 km/h 99% 0.0 mm 50 W/m2
06:23 10.5 °C 10.3 °C 1026.3 hPa NW 5.0 km/h 8.7 km/h 99% 0.0 mm 62 W/m2
06:28 10.7 °C 10.6 °C 1026.3 hPa NNW 6.1 km/h 11.1 km/h 99% 0.0 mm 71 W/m2
06:33 10.8 °C 10.7 °C 1026.3 hPa NNW 3.5 km/h 11.1 km/h 99% 0.0 mm 79 W/m2
06:38 10.8 °C 10.7 °C 1026.3 hPa NW 5.0 km/h 9.7 km/h 99% 0.0 mm 87 W/m2
06:43 11.1 °C 10.8 °C 1026.3 hPa NNW 5.0 km/h 9.7 km/h 98% 0.0 mm 93 W/m2
06:48 11.4 °C 11.1 °C 1026.0 hPa North 6.1 km/h 11.1 km/h 98% 0.0 mm 100 W/m2
06:58 11.7 °C 11.4 °C 1026.3 hPa NW 5.0 km/h 11.1 km/h 98% 0.0 mm 113 W/m2
07:13 12.6 °C 12.2 °C 1026.3 hPa NNW 5.0 km/h 11.1 km/h 97% 0.0 mm 133 W/m2
07:23 13.3 °C 12.8 °C 1026.3 hPa NW 6.1 km/h 9.7 km/h 97% 0.0 mm 153 W/m2
07:28 13.2 °C 12.3 °C 1026.3 hPa NW 7.2 km/h 13.4 km/h 94% 0.0 mm 162 W/m2
07:33 13.5 °C 12.6 °C 1026.3 hPa NW 6.1 km/h 13.4 km/h 94% 0.0 mm 173 W/m2
07:38 13.7 °C 12.4 °C 1026.3 hPa NW 8.7 km/h 13.4 km/h 92% 0.0 mm 185 W/m2
07:43 14.0 °C 12.4 °C 1026.6 hPa NW 7.2 km/h 13.4 km/h 90% 0.0 mm 198 W/m2
07:48 14.1 °C 12.3 °C 1026.6 hPa NW 5.0 km/h 12.2 km/h 89% 0.0 mm 211 W/m2
07:53 14.3 °C 12.5 °C 1026.6 hPa NW 6.1 km/h 13.4 km/h 89% 0.0 mm 223 W/m2
07:58 14.7 °C 12.7 °C 1026.3 hPa NNW 1.1 km/h 13.4 km/h 88% 0.0 mm 241 W/m2
08:08 15.3 °C 12.6 °C 1026.3 hPa NNW 6.1 km/h 12.2 km/h 84% 0.0 mm 261 W/m2
08:13 15.4 °C 12.7 °C 1026.6 hPa North 7.2 km/h 12.2 km/h 84% 0.0 mm 270 W/m2
08:18 15.6 °C 12.9 °C 1026.6 hPa NNW 7.2 km/h 12.2 km/h 84% 0.0 mm 281 W/m2
08:23 15.6 °C 12.7 °C 1026.6 hPa NW 6.1 km/h 12.2 km/h 83% 0.0 mm 293 W/m2
08:28 16.3 °C 13.4 °C 1026.6 hPa NNW 7.2 km/h 12.2 km/h 83% 0.0 mm 310 W/m2
08:33 16.5 °C 13.4 °C 1027.0 hPa NNW 3.5 km/h 11.1 km/h 82% 0.0 mm 320 W/m2
08:38 16.7 °C 13.4 °C 1026.6 hPa NW 5.0 km/h 11.1 km/h 81% 0.0 mm 341 W/m2
08:48 17.7 °C 13.8 °C 1027.0 hPa West 2.6 km/h 8.7 km/h 78% 0.0 mm 371 W/m2
08:53 18.1 °C 14.0 °C 1026.6 hPa West 1.1 km/h 5.0 km/h 77% 0.0 mm 386 W/m2
08:58 18.4 °C 14.1 °C 1027.0 hPa Calm   5.0 km/h 76% 0.0 mm 402 W/m2
09:03 19.2 °C 14.7 °C 1027.0 hPa NW 1.1 km/h 5.0 km/h 75% 0.0 mm 417 W/m2
09:08 20.1 °C 15.1 °C 1027.0 hPa Calm   5.0 km/h 73% 0.0 mm 436 W/m2
09:13 20.1 °C 14.2 °C 1027.0 hPa South 3.5 km/h 7.2 km/h 69% 0.0 mm 447 W/m2
09:18 19.1 °C 14.2 °C 1027.0 hPa South 3.5 km/h 9.7 km/h 73% 0.0 mm 459 W/m2
09:23 18.4 °C 14.3 °C 1027.0 hPa South 8.7 km/h 14.8 km/h 77% 0.0 mm 471 W/m2
09:28 17.9 °C 14.6 °C 1027.3 hPa South 6.1 km/h 14.8 km/h 81% 0.0 mm 485 W/m2
09:33 17.9 °C 14.8 °C 1027.0 hPa SSW 8.7 km/h 12.2 km/h 82% 0.0 mm 499 W/m2
09:38 18.0 °C 15.1 °C 1027.3 hPa SSW 8.7 km/h 12.2 km/h 83% 0.0 mm 519 W/m2
09:43 18.2 °C 15.3 °C 1027.3 hPa SSW 6.1 km/h 12.2 km/h 83% 0.0 mm 533 W/m2
09:48 18.1 °C 15.0 °C 1027.3 hPa SSW 6.1 km/h 14.8 km/h 82% 0.0 mm 549 W/m2
09:53 18.0 °C 15.1 °C 1027.3 hPa SSW 8.7 km/h 17.2 km/h 83% 0.0 mm 565 W/m2
09:58 18.1 °C 15.4 °C 1027.7 hPa South 6.1 km/h 17.2 km/h 84% 0.0 mm 586 W/m2
10:03 18.3 °C 15.6 °C 1027.3 hPa South 5.0 km/h 13.4 km/h 84% 0.0 mm 608 W/m2
10:13 18.2 °C 15.7 °C 1027.3 hPa SSW 9.7 km/h 15.8 km/h 85% 0.0 mm 643 W/m2
10:18 18.1 °C 15.4 °C 1027.3 hPa South 11.1 km/h 15.8 km/h 84% 0.0 mm 664 W/m2
10:23 18.0 °C 15.4 °C 1027.3 hPa SSW 8.7 km/h 14.8 km/h 85% 0.0 mm 676 W/m2
10:28 18.0 °C 15.4 °C 1027.3 hPa SSW 7.2 km/h 14.8 km/h 85% 0.0 mm 688 W/m2
10:33 18.3 °C 15.7 °C 1027.3 hPa South 8.7 km/h 13.4 km/h 85% 0.0 mm 703 W/m2
10:38 18.1 °C 15.4 °C 1027.0 hPa South 6.1 km/h 13.4 km/h 84% 0.0 mm 710 W/m2
10:43 18.1 °C 15.6 °C 1027.0 hPa South 8.7 km/h 13.4 km/h 85% 0.0 mm 719 W/m2
10:58 18.4 °C 15.8 °C 1026.6 hPa South 2.6 km/h 13.4 km/h 85% 0.0 mm 749 W/m2
11:03 19.0 °C 15.9 °C 1026.6 hPa South 7.2 km/h 12.2 km/h 82% 0.0 mm 762 W/m2
11:13 19.6 °C 15.7 °C 1026.3 hPa SSE 3.5 km/h 9.7 km/h 78% 0.0 mm 779 W/m2
11:34 19.4 °C 14.9 °C 1026.6 hPa SSE 11.1 km/h 14.8 km/h 75% 0.0 mm 798 W/m2
11:44 19.3 °C 14.6 °C 1026.3 hPa South 11.1 km/h 14.8 km/h 74% 0.0 mm 802 W/m2
11:49 19.4 °C 14.7 °C 1026.3 hPa South 7.2 km/h 14.8 km/h 74% 0.0 mm 804 W/m2
11:54 19.5 °C 14.8 °C 1026.3 hPa SSE 9.7 km/h 14.8 km/h 74% 0.0 mm 809 W/m2
11:59 19.5 °C 14.8 °C 1026.3 hPa South 9.7 km/h 14.8 km/h 74% 0.0 mm 810 W/m2
12:04 19.5 °C 14.8 °C 1026.3 hPa South 8.7 km/h 14.8 km/h 74% 0.0 mm 812 W/m2
12:09 19.7 °C 14.9 °C 1026.3 hPa South 11.1 km/h 14.8 km/h 74% 0.0 mm 815 W/m2
12:14 19.5 °C 14.6 °C 1026.3 hPa South 3.5 km/h 15.8 km/h 73% 0.0 mm 811 W/m2
12:19 20.2 °C 14.8 °C 1026.3 hPa South 6.1 km/h 15.8 km/h 71% 0.0 mm 819 W/m2
12:24 20.1 °C 14.7 °C 1026.3 hPa SSE 5.0 km/h 14.8 km/h 71% 0.0 mm 819 W/m2
12:34 20.5 °C 15.9 °C 1026.0 hPa SSE 7.2 km/h 15.8 km/h 75% 0.0 mm 820 W/m2
12:44 20.9 °C 16.3 °C 1026.0 hPa SE 9.7 km/h 13.4 km/h 75% 0.0 mm 818 W/m2
12:49 20.8 °C 16.2 °C 1025.6 hPa SE 7.2 km/h 14.8 km/h 75% 0.0 mm 813 W/m2
12:54 20.8 °C 16.2 °C 1025.6 hPa SSE 6.1 km/h 15.8 km/h 75% 0.0 mm 810 W/m2
13:04 21.7 °C 16.0 °C 1025.6 hPa SE 9.7 km/h 14.8 km/h 70% 0.0 mm 810 W/m2
13:09 21.5 °C 14.9 °C 1025.6 hPa SE 6.1 km/h 14.8 km/h 66% 0.0 mm 805 W/m2
13:14 21.4 °C 14.6 °C 1025.6 hPa SE 6.1 km/h 17.2 km/h 65% 0.0 mm 798 W/m2
13:19 21.6 °C 15.2 °C 1025.6 hPa SSE 3.5 km/h 17.2 km/h 67% 0.0 mm 799 W/m2
13:24 22.0 °C 14.9 °C 1025.6 hPa SSE 3.5 km/h 13.4 km/h 64% 0.0 mm 795 W/m2
13:39 22.5 °C 14.6 °C 1025.3 hPa SE 6.1 km/h 14.8 km/h 61% 0.0 mm 782 W/m2
13:44 22.5 °C 13.8 °C 1025.6 hPa SE 11.1 km/h 15.8 km/h 58% 0.0 mm 774 W/m2
13:54 22.1 °C 12.1 °C 1025.3 hPa SSE 7.2 km/h 15.8 km/h 53% 0.0 mm 760 W/m2
13:59 22.5 °C 12.2 °C 1025.3 hPa SE 3.5 km/h 13.4 km/h 52% 0.0 mm 754 W/m2
14:04 22.6 °C 12.3 °C 1025.3 hPa SE 9.7 km/h 14.8 km/h 52% 0.0 mm 751 W/m2
14:09 22.2 °C 11.6 °C 1025.3 hPa SE 3.5 km/h 14.8 km/h 51% 0.0 mm 742 W/m2
14:20 22.5 °C 12.2 °C 1025.3 hPa SSE 6.1 km/h 13.4 km/h 52% 0.0 mm 726 W/m2
14:25 22.8 °C 11.2 °C 1024.9 hPa South 6.1 km/h 12.2 km/h 48% 0.0 mm 723 W/m2
14:30 23.3 °C 8.9 °C 1024.9 hPa SSE 3.5 km/h 11.1 km/h 40% 0.0 mm 717 W/m2
14:40 23.5 °C 10.6 °C 1024.9 hPa SSE 3.5 km/h 12.2 km/h 44% 0.0 mm 698 W/m2
14:45 23.9 °C 11.3 °C 1024.9 hPa SE 2.6 km/h 12.2 km/h 45% 0.0 mm 691 W/m2
14:50 24.3 °C 9.1 °C 1024.6 hPa SE 7.2 km/h 11.1 km/h 38% 0.0 mm 688 W/m2
14:55 24.4 °C 8.4 °C 1024.6 hPa SSE 7.2 km/h 11.1 km/h 36% 0.0 mm 680 W/m2
15:00 24.4 °C 7.1 °C 1024.3 hPa SE 3.5 km/h 9.7 km/h 33% 0.0 mm 670 W/m2
15:05 24.7 °C 8.2 °C 1024.6 hPa ESE 1.1 km/h 9.7 km/h 35% 0.0 mm 662 W/m2
15:26 24.9 °C 14.7 °C 1023.9 hPa SSE 6.1 km/h 12.2 km/h 53% 0.0 mm 583 W/m2
15:31 25.2 °C 15.3 °C 1023.9 hPa SSE 2.6 km/h 12.2 km/h 54% 0.0 mm 561 W/m2
16:01 25.4 °C 13.9 °C 1023.6 hPa SSE 2.6 km/h 11.1 km/h 49% 0.0 mm 547 W/m2
16:06 25.7 °C 12.6 °C 1023.6 hPa SSE 3.5 km/h 11.1 km/h 44% 0.0 mm 539 W/m2
16:11 25.3 °C 13.2 °C 1023.6 hPa SSE 7.2 km/h 11.1 km/h 47% 0.0 mm 525 W/m2
16:17 25.2 °C 14.9 °C 1023.2 hPa SSE 1.1 km/h 13.4 km/h 53% 0.0 mm 507 W/m2
16:22 25.4 °C 15.7 °C 1023.6 hPa SSE 5.0 km/h 13.4 km/h 55% 0.0 mm 501 W/m2
16:27 24.8 °C 16.0 °C 1023.6 hPa SSE 7.2 km/h 15.8 km/h 58% 0.0 mm 485 W/m2
16:36 24.3 °C 17.1 °C 1023.2 hPa South 6.1 km/h 15.8 km/h 64% 0.0 mm 463 W/m2
16:41 24.2 °C 17.2 °C 1023.2 hPa South 8.7 km/h 15.8 km/h 65% 0.0 mm 449 W/m2
16:46 24.1 °C 17.1 °C 1023.2 hPa SSW 3.5 km/h 15.8 km/h 65% 0.0 mm 435 W/m2
16:51 24.2 °C 17.0 °C 1023.2 hPa SSW 5.0 km/h 12.2 km/h 64% 0.0 mm 424 W/m2
17:06 24.1 °C 16.9 °C 1023.2 hPa South 2.6 km/h 11.1 km/h 64% 0.0 mm 387 W/m2
17:26 23.1 °C 17.1 °C 1023.2 hPa South 9.7 km/h 13.4 km/h 69% 0.0 mm 339 W/m2
17:31 23.4 °C 17.2 °C 1023.2 hPa South 2.6 km/h 13.4 km/h 68% 0.0 mm 326 W/m2
17:36 24.1 °C 17.4 °C 1023.2 hPa South 5.0 km/h 12.2 km/h 66% 0.0 mm 313 W/m2
17:46 25.3 °C 17.3 °C 1022.9 hPa SE 1.1 km/h 9.7 km/h 61% 0.0 mm 290 W/m2
17:51 25.9 °C 17.3 °C 1023.2 hPa SE 2.6 km/h 9.7 km/h 59% 0.0 mm 278 W/m2
17:56 26.1 °C 16.9 °C 1023.2 hPa Calm   9.7 km/h 57% 0.0 mm 260 W/m2
18:01 26.2 °C 17.1 °C 1022.9 hPa Calm   7.2 km/h 57% 0.0 mm 216 W/m2
18:06 26.0 °C 16.8 °C 1023.2 hPa SSE 2.6 km/h 7.2 km/h 57% 0.0 mm 207 W/m2
18:16 24.8 °C 17.3 °C 1023.2 hPa South 6.1 km/h 8.7 km/h 63% 0.0 mm 209 W/m2
18:21 24.1 °C 16.9 °C 1023.2 hPa South 6.1 km/h 11.1 km/h 64% 0.0 mm 217 W/m2
18:26 23.6 °C 17.1 °C 1023.2 hPa SSW 7.2 km/h 11.1 km/h 67% 0.0 mm 173 W/m2
18:31 22.2 °C 16.7 °C 1023.2 hPa SW 7.2 km/h 12.2 km/h 71% 0.0 mm 149 W/m2
18:36 21.5 °C 16.7 °C 1023.2 hPa WSW 5.0 km/h 13.4 km/h 74% 0.0 mm 106 W/m2
18:46 20.4 °C 16.4 °C 1023.2 hPa WSW 6.1 km/h 12.2 km/h 78% 0.0 mm 84 W/m2
18:51 20.1 °C 16.3 °C 1023.2 hPa SW 9.7 km/h 15.8 km/h 79% 0.0 mm 68 W/m2
19:01 19.7 °C 16.6 °C 1023.2 hPa SW 7.2 km/h 17.2 km/h 82% 0.0 mm 67 W/m2
19:06 19.5 °C 16.6 °C 1023.6 hPa SW 5.0 km/h 15.8 km/h 83% 0.0 mm 50 W/m2
19:11 19.3 °C 16.6 °C 1023.6 hPa SW 9.7 km/h 14.8 km/h 84% 0.0 mm 52 W/m2
19:17 19.0 °C 16.4 °C 1023.2 hPa SW 11.1 km/h 18.3 km/h 85% 0.0 mm 42 W/m2
19:22 18.6 °C 16.6 °C 1023.6 hPa SW 8.7 km/h 20.9 km/h 88% 0.0 mm 33 W/m2
19:27 18.4 °C 16.6 °C 1023.6 hPa SW 9.7 km/h 20.9 km/h 89% 0.0 mm 28 W/m2
19:32 18.2 °C 16.6 °C 1023.6 hPa SW 6.1 km/h 17.2 km/h 90% 0.0 mm 23 W/m2
19:37 18.0 °C 16.5 °C 1023.6 hPa SW 7.2 km/h 12.2 km/h 91% 0.0 mm 19 W/m2
19:42 17.9 °C 16.4 °C 1023.6 hPa WSW 8.7 km/h 12.2 km/h 91% 0.0 mm 16 W/m2
19:47 17.9 °C 16.4 °C 1023.6 hPa WSW 5.0 km/h 13.4 km/h 91% 0.0 mm 11 W/m2
19:52 17.8 °C 16.3 °C 1023.6 hPa WSW 3.5 km/h 13.4 km/h 91% 0.0 mm 8 W/m2
20:13 17.6 °C 16.3 °C 1023.6 hPa SW 6.1 km/h 9.7 km/h 92% 0.0 mm 0 W/m2
20:18 17.6 °C 16.4 °C 1023.6 hPa SW 7.2 km/h 9.7 km/h 93% 0.0 mm 0 W/m2
20:23 17.6 °C 16.4 °C 1023.9 hPa SW 6.1 km/h 9.7 km/h 93% 0.0 mm 0 W/m2
20:28 17.6 °C 16.4 °C 1023.6 hPa SW 8.7 km/h 13.4 km/h 93% 0.0 mm 0 W/m2
20:33 17.6 °C 16.4 °C 1023.9 hPa SW 7.2 km/h 13.4 km/h 93% 0.0 mm 0 W/m2
20:38 17.6 °C 16.4 °C 1023.9 hPa SW 6.1 km/h 13.4 km/h 93% 0.0 mm 0 W/m2
20:43 17.6 °C 16.3 °C 1023.9 hPa SW 1.1 km/h 11.1 km/h 92% 0.0 mm 0 W/m2
20:48 17.6 °C 16.3 °C 1023.9 hPa SW 6.1 km/h 11.1 km/h 92% 0.0 mm 0 W/m2
20:53 17.6 °C 16.3 °C 1023.9 hPa SW 6.1 km/h 9.7 km/h 92% 0.0 mm 0 W/m2
20:58 17.6 °C 16.3 °C 1023.6 hPa SW 3.5 km/h 9.7 km/h 92% 0.0 mm 0 W/m2
21:03 17.7 °C 16.4 °C 1023.9 hPa SW 3.5 km/h 8.7 km/h 92% 0.0 mm 0 W/m2
21:08 17.7 °C 16.4 °C 1023.9 hPa SW 7.2 km/h 11.1 km/h 92% 0.0 mm 0 W/m2
21:13 17.7 °C 16.4 °C 1024.3 hPa SW 5.0 km/h 11.1 km/h 92% 0.0 mm 0 W/m2
21:23 17.7 °C 16.6 °C 1024.3 hPa SW 3.5 km/h 9.7 km/h 93% 0.0 mm 0 W/m2
21:28 17.7 °C 16.6 °C 1024.3 hPa SW 7.2 km/h 9.7 km/h 93% 0.0 mm 0 W/m2
21:33 17.6 °C 16.4 °C 1024.3 hPa SW 5.0 km/h 9.7 km/h 93% 0.0 mm 0 W/m2
21:38 17.6 °C 16.4 °C 1024.3 hPa Calm   9.7 km/h 93% 0.0 mm 0 W/m2
21:43 17.6 °C 16.4 °C 1024.3 hPa Calm   6.1 km/h 93% 0.0 mm 0 W/m2
21:48 17.6 °C 16.4 °C 1024.3 hPa SW 2.6 km/h 6.1 km/h 93% 0.0 mm 0 W/m2
21:53 17.5 °C 16.4 °C 1024.3 hPa SW 1.1 km/h 6.1 km/h 93% 0.0 mm 0 W/m2
21:58 17.5 °C 16.4 °C 1024.3 hPa SW 2.6 km/h 5.0 km/h 93% 0.0 mm 0 W/m2
22:03 17.5 °C 16.6 °C 1024.3 hPa SW 3.5 km/h 7.2 km/h 94% 0.0 mm 0 W/m2
22:08 17.5 °C 16.6 °C 1024.3 hPa Calm   7.2 km/h 94% 0.0 mm 0 W/m2
22:13 17.5 °C 16.6 °C 1024.6 hPa Calm   5.0 km/h 94% 0.0 mm 0 W/m2
22:23 17.4 °C 16.4 °C 1024.6 hPa Calm     94% 0.0 mm 0 W/m2
22:28 17.4 °C 16.4 °C 1024.6 hPa Calm     94% 0.0 mm 0 W/m2
22:33 17.3 °C 16.3 °C 1024.6 hPa Calm     94% 0.0 mm 0 W/m2
22:38 17.4 °C 16.4 °C 1024.6 hPa Calm     94% 0.0 mm 0 W/m2
22:43 17.4 °C 16.4 °C 1024.6 hPa SW 1.1 km/h 2.6 km/h 94% 0.0 mm 0 W/m2
22:48 17.5 °C 16.6 °C 1024.6 hPa Calm   2.6 km/h 94% 0.0 mm 0 W/m2
22:53 17.5 °C 16.6 °C 1024.6 hPa Calm   1.1 km/h 94% 0.0 mm 0 W/m2
22:58 17.5 °C 16.6 °C 1024.6 hPa Calm   2.6 km/h 94% 0.0 mm 0 W/m2
23:03 17.4 °C 16.4 °C 1024.6 hPa Calm   2.6 km/h 94% 0.0 mm 0 W/m2
23:08 17.3 °C 16.2 °C 1024.6 hPa Calm     93% 0.0 mm 0 W/m2
23:13 17.2 °C 16.1 °C 1024.3 hPa Calm     93% 0.0 mm 0 W/m2
23:18 17.0 °C 15.9 °C 1024.3 hPa Calm     93% 0.0 mm 0 W/m2
23:23 17.0 °C 16.1 °C 1024.3 hPa Calm     94% 0.0 mm 0 W/m2
23:28 17.0 °C 16.1 °C 1024.3 hPa Calm   3.5 km/h 94% 0.0 mm 0 W/m2
23:33 16.9 °C 16.3 °C 1024.3 hPa Calm   3.5 km/h 96% 0.0 mm 0 W/m2
23:38 16.7 °C 16.1 °C 1024.3 hPa Calm   2.6 km/h 96% 0.0 mm 0 W/m2
23:43 16.7 °C 16.1 °C 1024.3 hPa Calm     96% 0.0 mm 0 W/m2
23:49 16.6 °C 15.9 °C 1024.3 hPa Calm   2.6 km/h 96% 0.0 mm 0 W/m2
23:55 16.5 °C 15.9 °C 1024.6 hPa Calm   2.6 km/h 96% 0.0 mm 0 W/m2
Northern Hawkes Bay. New Zealand Historic Data
Compliments of Weather Underground - 2 mb